createdAt,value
2022-08-29T00:01:29.030Z,67.65
2022-08-29T00:03:57.832Z,67.14
2022-08-29T00:06:26.145Z,68.29
2022-08-29T00:08:53.555Z,68.07
2022-08-29T00:11:21.852Z,67.74
2022-08-29T00:13:49.439Z,68.11
2022-08-29T00:16:17.068Z,67.34
2022-08-29T00:18:45.365Z,67.20
2022-08-29T00:21:12.860Z,67.81
2022-08-29T00:23:40.530Z,67.26
2022-08-29T00:26:08.187Z,70.00
2022-08-29T00:28:35.707Z,68.19
2022-08-29T00:31:03.641Z,68.32
2022-08-29T00:33:31.357Z,67.95
2022-08-29T00:35:59.030Z,68.52
2022-08-29T00:38:27.960Z,68.28
2022-08-29T00:40:57.282Z,67.90
2022-08-29T00:43:33.846Z,67.79
2022-08-29T00:46:04.298Z,67.71
2022-08-29T00:48:34.548Z,68.00
2022-08-29T00:51:06.372Z,69.01
2022-08-29T00:53:40.928Z,69.47
2022-08-29T00:56:10.310Z,68.08
2022-08-29T00:58:41.148Z,69.91
2022-08-29T01:01:09.206Z,69.09
2022-08-29T01:03:37.342Z,68.50
2022-08-29T01:06:12.899Z,69.35
2022-08-29T01:08:41.783Z,68.31
2022-08-29T01:11:29.257Z,69.27
2022-08-29T01:13:57.063Z,68.92
2022-08-29T01:16:25.270Z,68.93
2022-08-29T01:18:56.486Z,69.46
2022-08-29T01:21:34.969Z,69.10
2022-08-29T01:24:24.109Z,71.99
2022-08-29T01:26:51.743Z,70.47
2022-08-29T01:29:19.174Z,69.79
2022-08-29T01:31:56.973Z,69.68
2022-08-29T01:34:28.017Z,75.65
2022-08-29T01:37:01.212Z,73.21
2022-08-29T01:39:31.945Z,73.23
2022-08-29T01:42:01.470Z,71.97
2022-08-29T01:44:29.270Z,71.89
2022-08-29T01:47:02.756Z,72.11
2022-08-29T01:49:34.480Z,71.65
2022-08-29T01:52:03.969Z,70.29
2022-08-29T01:54:32.783Z,70.95
2022-08-29T01:57:01.263Z,70.60
2022-08-29T01:59:30.226Z,70.90
2022-08-29T02:02:24.245Z,74.37
2022-08-29T02:04:51.979Z,71.55
2022-08-29T02:07:23.086Z,70.35
2022-08-29T02:09:50.861Z,69.21
2022-08-29T02:12:20.582Z,68.87
2022-08-29T02:14:48.988Z,70.05
2022-08-29T02:17:16.454Z,70.30
2022-08-29T02:19:44.231Z,70.94
2022-08-29T02:22:11.812Z,72.46
2022-08-29T02:24:39.522Z,71.47
2022-08-29T02:27:09.375Z,72.66
2022-08-29T02:29:38.374Z,71.22
2022-08-29T02:32:08.484Z,70.60
2022-08-29T02:34:36.844Z,69.26
2022-08-29T02:37:05.101Z,70.35
2022-08-29T02:39:33.883Z,69.55
2022-08-29T02:42:02.128Z,70.74
2022-08-29T02:44:29.808Z,71.38
2022-08-29T02:46:57.353Z,70.35
2022-08-29T02:49:25.083Z,69.66
2022-08-29T02:51:52.490Z,69.53
2022-08-29T02:54:19.869Z,69.02
2022-08-29T02:56:47.510Z,69.49
2022-08-29T02:59:14.938Z,69.20
2022-08-29T03:01:42.362Z,71.23
2022-08-29T03:04:10.051Z,70.65
2022-08-29T03:06:37.424Z,70.84
2022-08-29T03:09:04.979Z,70.85
2022-08-29T03:11:32.652Z,70.71
2022-08-29T03:14:00.973Z,68.85
2022-08-29T03:16:28.437Z,69.98
2022-08-29T03:18:56.163Z,70.28
2022-08-29T03:21:25.821Z,69.39
2022-08-29T03:23:53.775Z,70.08
2022-08-29T03:26:21.425Z,70.11
2022-08-29T03:28:48.836Z,70.70
2022-08-29T03:31:16.365Z,69.93
2022-08-29T03:33:44.081Z,71.17
2022-08-29T03:36:13.977Z,70.82
2022-08-29T03:38:43.468Z,70.09
2022-08-29T03:41:11.388Z,70.59
2022-08-29T03:43:38.914Z,69.73
2022-08-29T03:46:06.432Z,69.75
2022-08-29T03:48:34.147Z,70.33
2022-08-29T03:51:01.567Z,70.38
2022-08-29T03:53:30.747Z,70.80
2022-08-29T03:55:58.518Z,71.16
2022-08-29T03:58:26.040Z,71.18
2022-08-29T04:00:53.413Z,70.91
2022-08-29T04:03:24.971Z,71.62
2022-08-29T04:05:59.033Z,72.72
2022-08-29T04:08:26.814Z,71.53
2022-08-29T04:10:54.213Z,70.82
2022-08-29T04:15:50.194Z,71.78
2022-08-29T04:18:21.248Z,70.82
2022-08-29T04:20:49.117Z,70.83
2022-08-29T04:23:16.773Z,70.35
2022-08-29T04:25:44.177Z,72.28
2022-08-29T04:28:13.488Z,70.59
2022-08-29T04:30:51.184Z,70.61
2022-08-29T04:33:22.358Z,70.74
2022-08-29T04:35:52.266Z,69.79
2022-08-29T04:38:19.785Z,70.05
2022-08-29T04:40:47.589Z,68.08
2022-08-29T04:43:15.278Z,68.56
2022-08-29T04:45:42.709Z,69.31
2022-08-29T04:48:10.851Z,68.81
2022-08-29T04:50:39.028Z,68.00
2022-08-29T04:53:06.417Z,68.01
2022-08-29T04:55:33.784Z,68.33
2022-08-29T04:58:01.639Z,67.93
2022-08-29T05:00:31.415Z,67.57
2022-08-29T05:02:59.477Z,66.94
2022-08-29T05:05:27.883Z,68.29
2022-08-29T05:07:55.300Z,67.97
2022-08-29T05:10:22.892Z,67.32
2022-08-29T05:12:51.649Z,65.50
2022-08-29T05:15:19.068Z,65.80
2022-08-29T05:17:46.457Z,66.35
2022-08-29T05:20:14.110Z,66.64
2022-08-29T05:22:42.254Z,64.91
2022-08-29T05:25:15.863Z,64.95
2022-08-29T05:27:46.013Z,64.09
2022-08-29T05:30:13.620Z,61.95
2022-08-29T05:32:40.998Z,61.48
2022-08-29T05:35:09.371Z,60.48
2022-08-29T05:37:37.265Z,61.82
2022-08-29T05:40:05.484Z,62.72
2022-08-29T05:42:33.203Z,62.53
2022-08-29T05:45:00.596Z,62.56
2022-08-29T05:47:28.136Z,61.07
2022-08-29T05:49:55.798Z,62.80
2022-08-29T05:52:23.438Z,62.00
2022-08-29T05:54:50.986Z,60.58
2022-08-29T05:57:22.400Z,59.96
2022-08-29T05:59:52.146Z,59.22
2022-08-29T06:02:21.150Z,59.14
2022-08-29T06:04:49.338Z,57.37
2022-08-29T06:07:16.898Z,58.03
2022-08-29T06:09:44.666Z,59.14
2022-08-29T06:12:16.099Z,61.37
2022-08-29T06:14:50.439Z,57.84
2022-08-29T06:17:18.650Z,59.26
2022-08-29T06:19:46.346Z,57.65
2022-08-29T06:22:13.854Z,57.62
2022-08-29T06:24:42.597Z,58.32
2022-08-29T06:27:12.300Z,57.40
2022-08-29T06:29:43.009Z,57.30
2022-08-29T06:32:12.238Z,56.80
2022-08-29T06:34:39.829Z,57.00
2022-08-29T06:37:07.281Z,57.93
2022-08-29T06:39:35.079Z,58.06
2022-08-29T06:42:02.491Z,57.30
2022-08-29T06:44:31.385Z,57.22
2022-08-29T06:46:59.335Z,58.98
2022-08-29T06:49:27.726Z,58.65
2022-08-29T06:51:58.078Z,57.84
2022-08-29T06:54:28.203Z,58.68
2022-08-29T06:56:56.868Z,55.92
2022-08-29T06:59:24.577Z,54.60
2022-08-29T07:01:52.876Z,55.48
2022-08-29T07:04:20.617Z,56.55
2022-08-29T07:06:48.987Z,57.23
2022-08-29T07:09:17.009Z,55.30
2022-08-29T07:11:44.498Z,55.92
2022-08-29T07:14:12.666Z,55.12
2022-08-29T07:16:41.290Z,56.29
2022-08-29T07:19:10.363Z,57.08
2022-08-29T07:21:38.597Z,54.64
2022-08-29T07:24:06.867Z,55.01
2022-08-29T07:26:38.870Z,54.98
2022-08-29T07:29:10.437Z,53.40
2022-08-29T07:31:39.254Z,56.95
2022-08-29T07:34:07.714Z,58.21
2022-08-29T07:36:35.710Z,55.46
2022-08-29T07:39:06.650Z,54.30
2022-08-29T07:41:34.345Z,55.98
2022-08-29T07:44:01.722Z,54.86
2022-08-29T07:46:29.185Z,52.60
2022-08-29T07:48:58.710Z,51.70
2022-08-29T07:51:27.134Z,52.51
2022-08-29T07:53:55.262Z,52.65
2022-08-29T07:56:26.715Z,51.86
2022-08-29T07:58:55.012Z,53.06
2022-08-29T08:01:23.573Z,52.38
2022-08-29T08:03:52.037Z,53.38
2022-08-29T08:06:22.335Z,53.00
2022-08-29T08:08:50.378Z,51.24
2022-08-29T08:11:20.097Z,53.12
2022-08-29T08:13:48.074Z,52.25
2022-08-29T08:16:19.008Z,53.20
2022-08-29T08:18:46.757Z,54.57
2022-08-29T08:21:14.467Z,54.85
2022-08-29T08:23:41.982Z,57.25
2022-08-29T08:26:10.829Z,55.08
2022-08-29T08:28:38.606Z,56.15
2022-08-29T08:31:07.977Z,54.31
2022-08-29T08:33:38.774Z,54.29
2022-08-29T08:36:18.550Z,53.65
2022-08-29T08:38:46.869Z,51.85
2022-08-29T08:41:27.430Z,52.02
2022-08-29T08:44:07.181Z,54.65
2022-08-29T08:46:38.755Z,54.18
2022-08-29T08:49:11.236Z,54.42
2022-08-29T08:51:43.312Z,54.11
2022-08-29T08:54:16.645Z,51.93
2022-08-29T08:56:51.330Z,50.42
2022-08-29T08:59:24.554Z,51.48
2022-08-29T09:02:06.610Z,53.85
2022-08-29T09:05:06.834Z,52.96
2022-08-29T09:07:39.965Z,51.56
2022-08-29T09:10:28.904Z,51.48
2022-08-29T09:13:21.462Z,51.33
2022-08-29T09:15:52.660Z,51.85
2022-08-29T09:18:39.429Z,49.44
2022-08-29T09:21:37.020Z,49.82
2022-08-29T09:24:00.069Z,50.49
2022-08-29T09:26:27.717Z,49.69
2022-08-29T09:28:55.248Z,49.40
2022-08-29T09:31:24.414Z,49.92
2022-08-29T09:33:58.162Z,48.84
2022-08-29T09:36:52.030Z,49.72
2022-08-29T09:39:25.712Z,49.21
2022-08-29T09:42:14.682Z,49.40
2022-08-29T09:44:52.188Z,50.44
2022-08-29T09:47:23.773Z,50.91
2022-08-29T09:50:08.902Z,49.24
2022-08-29T09:52:39.361Z,48.08
2022-08-29T09:55:24.457Z,49.13
2022-08-29T09:57:55.013Z,51.76
2022-08-29T10:00:31.598Z,52.41
2022-08-29T10:03:01.102Z,53.78
2022-08-29T10:05:40.731Z,50.96
2022-08-29T10:08:25.591Z,50.83
2022-08-29T10:10:59.686Z,49.48
2022-08-29T10:13:40.966Z,47.58
2022-08-29T10:17:23.118Z,52.33
2022-08-29T10:19:50.966Z,50.96
2022-08-29T10:22:29.691Z,47.62
2022-08-29T10:25:07.114Z,49.85
2022-08-29T10:27:43.199Z,46.64
2022-08-29T10:30:20.742Z,46.69
2022-08-29T10:33:04.734Z,48.66
2022-08-29T10:35:54.680Z,49.04
2022-08-29T10:38:43.592Z,48.24
2022-08-29T10:41:23.877Z,49.06
2022-08-29T10:44:01.285Z,48.72
2022-08-29T10:46:57.034Z,50.23
2022-08-29T10:49:45.022Z,48.61
2022-08-29T10:52:34.513Z,45.58
2022-08-29T10:55:19.340Z,48.12
2022-08-29T10:58:02.124Z,48.71
2022-08-29T11:00:45.401Z,46.84
2022-08-29T11:03:23.111Z,45.53
2022-08-29T11:06:03.899Z,47.22
2022-08-29T11:08:40.192Z,45.43
2022-08-29T11:11:07.570Z,47.16
2022-08-29T11:13:40.809Z,45.98
2022-08-29T11:16:21.795Z,46.49
2022-08-29T11:19:01.415Z,47.29
2022-08-29T11:21:43.215Z,47.29
2022-08-29T11:24:12.368Z,46.95
2022-08-29T11:27:02.620Z,45.74
2022-08-29T11:29:51.529Z,45.53
2022-08-29T11:32:33.590Z,44.20
2022-08-29T11:35:24.091Z,44.23
2022-08-29T11:38:04.973Z,43.56
2022-08-29T11:43:29.156Z,43.36
2022-08-29T11:46:06.200Z,44.31
2022-08-29T11:48:38.703Z,43.18
2022-08-29T11:51:33.259Z,43.97
2022-08-29T11:54:40.330Z,42.62
2022-08-29T11:57:07.849Z,44.08
2022-08-29T11:59:56.642Z,44.91
2022-08-29T12:02:30.307Z,44.62
2022-08-29T12:05:29.778Z,44.59
2022-08-29T12:08:26.360Z,44.78
2022-08-29T12:11:09.545Z,43.96
2022-08-29T12:13:49.135Z,42.69
2022-08-29T12:16:53.504Z,43.75
2022-08-29T12:19:44.842Z,43.22
2022-08-29T12:22:50.857Z,41.25
2022-08-29T12:25:27.302Z,41.87
2022-08-29T12:28:02.768Z,42.51
2022-08-29T12:30:35.822Z,43.79
2022-08-29T12:33:36.130Z,42.95
2022-08-29T12:36:18.135Z,44.07
2022-08-29T12:39:06.823Z,42.88
2022-08-29T12:41:47.116Z,44.47
2022-08-29T12:44:17.253Z,41.53
2022-08-29T12:46:46.805Z,40.66
2022-08-29T12:49:23.609Z,42.06
2022-08-29T12:51:56.870Z,40.25
2022-08-29T12:54:41.980Z,39.89
2022-08-29T12:57:20.088Z,41.63
2022-08-29T12:59:48.182Z,40.73
2022-08-29T13:02:36.431Z,40.68
2022-08-29T13:05:17.989Z,40.90
2022-08-29T13:08:12.497Z,41.31
2022-08-29T13:10:52.485Z,41.47
2022-08-29T13:13:22.056Z,42.76
2022-08-29T13:15:50.905Z,40.93
2022-08-29T13:18:18.398Z,41.40
2022-08-29T13:20:47.505Z,40.28
2022-08-29T13:23:24.650Z,42.16
2022-08-29T13:25:56.803Z,41.53
2022-08-29T13:28:28.414Z,40.28
2022-08-29T13:31:11.296Z,41.25
2022-08-29T13:34:00.409Z,42.31
2022-08-29T13:36:28.041Z,43.03
2022-08-29T13:39:17.255Z,42.60
2022-08-29T13:41:47.872Z,43.28
2022-08-29T13:44:20.451Z,42.81
2022-08-29T13:46:51.293Z,43.38
2022-08-29T13:49:24.713Z,43.73
2022-08-29T13:51:52.608Z,41.86
2022-08-29T13:54:20.504Z,42.24
2022-08-29T13:56:53.884Z,43.28
2022-08-29T13:59:25.856Z,42.66
2022-08-29T14:02:10.459Z,42.70
2022-08-29T14:04:40.807Z,42.53
2022-08-29T14:07:11.820Z,41.90
2022-08-29T14:09:42.077Z,40.48
2022-08-29T14:12:09.704Z,40.88
2022-08-29T14:14:37.070Z,39.80
2022-08-29T14:17:05.157Z,39.91
2022-08-29T14:19:32.740Z,40.82
2022-08-29T14:22:00.665Z,40.38
2022-08-29T14:24:31.679Z,41.06
2022-08-29T14:27:01.171Z,40.81
2022-08-29T14:29:31.095Z,41.39
2022-08-29T14:31:59.437Z,41.08
2022-08-29T14:34:32.614Z,41.87
2022-08-29T14:37:01.406Z,41.65
2022-08-29T14:39:29.100Z,39.82
2022-08-29T14:41:56.820Z,40.06
2022-08-29T14:44:24.244Z,40.29
2022-08-29T14:46:51.913Z,39.69
2022-08-29T14:49:19.657Z,40.12
2022-08-29T14:51:47.198Z,39.15
2022-08-29T14:54:15.139Z,38.87
2022-08-29T14:56:50.710Z,39.22
2022-08-29T14:59:20.067Z,39.59
2022-08-29T15:01:53.950Z,40.00
2022-08-29T15:04:34.956Z,41.27
2022-08-29T15:07:08.451Z,40.24
2022-08-29T15:09:36.256Z,40.81
2022-08-29T15:12:03.961Z,40.22
2022-08-29T15:14:31.944Z,41.60
2022-08-29T15:16:59.341Z,39.96
2022-08-29T15:22:14.412Z,40.80
2022-08-29T15:24:42.118Z,40.30
2022-08-29T15:27:09.530Z,40.22
2022-08-29T15:29:38.049Z,40.60
2022-08-29T15:32:05.664Z,41.75
2022-08-29T15:34:33.380Z,41.69
2022-08-29T15:37:01.794Z,41.82
2022-08-29T15:39:29.271Z,41.58
2022-08-29T15:41:58.902Z,41.79
2022-08-29T15:44:28.500Z,41.79
2022-08-29T15:46:56.737Z,41.27
2022-08-29T15:49:25.821Z,41.24
2022-08-29T15:51:54.443Z,41.28
2022-08-29T15:54:23.000Z,41.14
2022-08-29T15:56:50.807Z,41.31
2022-08-29T15:59:31.000Z,41.04
2022-08-29T16:02:10.272Z,40.84
2022-08-29T16:04:39.310Z,41.37
2022-08-29T16:07:06.747Z,40.18
2022-08-29T16:09:34.235Z,42.01
2022-08-29T16:12:01.888Z,42.14
2022-08-29T16:14:58.627Z,41.22
2022-08-29T16:17:20.361Z,40.87
2022-08-29T16:19:47.746Z,41.49
2022-08-29T16:22:15.110Z,41.90
2022-08-29T16:24:42.826Z,41.70
2022-08-29T16:27:10.535Z,40.69
2022-08-29T16:29:39.191Z,40.98
2022-08-29T16:32:07.784Z,42.34
2022-08-29T16:34:35.157Z,42.42
2022-08-29T16:37:02.608Z,42.03
2022-08-29T16:39:30.417Z,41.92
2022-08-29T16:41:58.846Z,43.65
2022-08-29T16:44:26.361Z,43.41
2022-08-29T16:46:54.158Z,42.87
2022-08-29T16:49:21.664Z,42.91
2022-08-29T16:51:49.067Z,42.60
2022-08-29T16:54:16.728Z,42.45
2022-08-29T16:56:44.696Z,43.06
2022-08-29T16:59:12.669Z,44.63
2022-08-29T17:01:46.311Z,46.33
2022-08-29T17:04:19.514Z,47.50
2022-08-29T17:06:48.107Z,46.52
2022-08-29T17:09:17.392Z,48.06
2022-08-29T17:11:47.032Z,48.45
2022-08-29T17:14:15.766Z,49.63
2022-08-29T17:16:45.824Z,48.66
2022-08-29T17:19:14.821Z,49.86
2022-08-29T17:21:43.109Z,49.54
2022-08-29T17:24:11.507Z,49.12
2022-08-29T17:26:41.365Z,48.80
2022-08-29T17:29:09.671Z,49.36
2022-08-29T17:31:38.959Z,48.19
2022-08-29T17:34:08.576Z,47.94
2022-08-29T17:36:37.468Z,48.05
2022-08-29T17:39:05.669Z,48.21
2022-08-29T17:41:33.625Z,47.87
2022-08-29T17:44:03.581Z,47.70
2022-08-29T17:46:31.015Z,47.67
2022-08-29T17:48:58.461Z,47.91
2022-08-29T17:51:26.244Z,47.67
2022-08-29T17:53:54.314Z,47.55
2022-08-29T17:56:29.465Z,47.86
2022-08-29T17:58:58.539Z,48.75
2022-08-29T18:01:25.960Z,48.74
2022-08-29T18:03:59.938Z,48.98
2022-08-29T18:06:31.684Z,48.62
2022-08-29T18:09:00.229Z,48.38
2022-08-29T18:11:27.731Z,48.46
2022-08-29T18:13:55.293Z,48.47
2022-08-29T18:16:23.027Z,48.37
2022-08-29T18:18:51.615Z,49.20
2022-08-29T18:21:19.046Z,48.91
2022-08-29T18:23:46.718Z,49.29
2022-08-29T18:26:14.895Z,49.61
2022-08-29T18:28:42.263Z,49.86
2022-08-29T18:31:10.122Z,50.46
2022-08-29T18:33:59.729Z,50.08
2022-08-29T18:36:32.066Z,50.56
2022-08-29T18:39:00.566Z,51.07
2022-08-29T18:41:29.247Z,51.04
2022-08-29T18:43:57.096Z,51.06
2022-08-29T18:46:25.680Z,51.42
2022-08-29T18:48:53.628Z,52.12
2022-08-29T18:51:21.405Z,52.12
2022-08-29T18:53:49.183Z,52.51
2022-08-29T18:56:16.918Z,52.45
2022-08-29T18:58:44.681Z,52.46
2022-08-29T19:01:28.278Z,52.70
2022-08-29T19:03:57.865Z,52.51
2022-08-29T19:06:27.044Z,52.34
2022-08-29T19:08:55.133Z,52.59
2022-08-29T19:11:23.342Z,52.51
2022-08-29T19:13:52.613Z,52.73
2022-08-29T19:16:21.351Z,52.14
2022-08-29T19:18:49.844Z,53.02
2022-08-29T19:21:17.270Z,53.05
2022-08-29T19:23:52.126Z,53.21
2022-08-29T19:26:34.532Z,52.82
2022-08-29T19:29:06.593Z,52.69
2022-08-29T19:31:34.524Z,53.26
2022-08-29T19:34:02.090Z,53.94
2022-08-29T19:36:29.555Z,54.11
2022-08-29T19:38:57.237Z,53.64
2022-08-29T19:41:25.235Z,54.22
2022-08-29T19:43:52.771Z,53.82
2022-08-29T19:46:23.076Z,53.45
2022-08-29T19:48:52.497Z,52.92
2022-08-29T19:51:25.011Z,53.96
2022-08-29T19:53:57.107Z,53.75
2022-08-29T19:56:26.384Z,54.73
2022-08-29T19:58:54.943Z,54.36
2022-08-29T20:01:22.557Z,54.69
2022-08-29T20:03:50.251Z,54.23
2022-08-29T20:06:20.917Z,55.10
2022-08-29T20:08:48.358Z,55.28
2022-08-29T20:11:23.059Z,55.29
2022-08-29T20:13:52.313Z,55.47
2022-08-29T20:16:23.294Z,56.71
2022-08-29T20:18:52.191Z,55.89
2022-08-29T20:21:20.928Z,55.93
2022-08-29T20:23:54.762Z,56.96
2022-08-29T20:26:28.692Z,57.53
2022-08-29T20:28:56.210Z,58.12
2022-08-29T20:31:23.662Z,57.14
2022-08-29T20:33:52.649Z,56.43
2022-08-29T20:36:42.151Z,55.86
2022-08-29T20:39:12.214Z,55.90
2022-08-29T20:41:39.946Z,56.96
2022-08-29T20:44:07.733Z,57.15
2022-08-29T20:46:42.108Z,58.44
2022-08-29T20:49:11.590Z,57.68
2022-08-29T20:51:40.103Z,57.99
2022-08-29T20:54:07.511Z,57.59
2022-08-29T20:56:35.024Z,57.05
2022-08-29T20:59:03.149Z,57.41
2022-08-29T21:01:30.575Z,58.58
2022-08-29T21:04:20.840Z,57.90
2022-08-29T21:06:53.765Z,57.32
2022-08-29T21:09:22.450Z,57.51
2022-08-29T21:11:51.682Z,58.11
2022-08-29T21:14:19.581Z,58.37
2022-08-29T21:16:47.449Z,59.06
2022-08-29T21:19:15.111Z,59.18
2022-08-29T21:21:43.497Z,59.28
2022-08-29T21:24:11.429Z,59.17
2022-08-29T21:26:39.630Z,58.84
2022-08-29T21:29:08.050Z,58.95
2022-08-29T21:31:35.958Z,59.88
2022-08-29T21:34:07.131Z,59.55
2022-08-29T21:36:36.090Z,60.31
2022-08-29T21:39:05.613Z,59.05
2022-08-29T21:41:33.942Z,59.43
2022-08-29T21:44:01.325Z,59.99
2022-08-29T21:46:31.709Z,60.26
2022-08-29T21:49:01.193Z,60.26
2022-08-29T21:51:30.220Z,60.31
2022-08-29T21:53:58.461Z,61.13
2022-08-29T21:56:28.029Z,61.35
2022-08-29T21:58:56.951Z,60.50
2022-08-29T22:01:27.777Z,60.20
2022-08-29T22:04:00.028Z,60.06
2022-08-29T22:06:28.219Z,61.51
2022-08-29T22:08:56.185Z,60.63
2022-08-29T22:11:34.590Z,61.47
2022-08-29T22:14:07.135Z,61.46
2022-08-29T22:16:35.596Z,61.78
2022-08-29T22:19:09.219Z,61.79
2022-08-29T22:21:49.389Z,60.70
2022-08-29T22:24:17.854Z,62.32
2022-08-29T22:26:46.618Z,61.58
2022-08-29T22:29:15.802Z,62.66
2022-08-29T22:31:44.579Z,61.57
2022-08-29T22:34:13.681Z,62.49
2022-08-29T22:36:41.094Z,62.10
2022-08-29T22:39:08.962Z,63.41
2022-08-29T22:41:36.868Z,62.25
2022-08-29T22:46:53.930Z,61.67
2022-08-29T22:49:21.467Z,61.39
2022-08-29T22:51:49.064Z,61.66
2022-08-29T22:54:34.948Z,62.12
2022-08-29T22:57:08.818Z,63.15
2022-08-29T22:59:37.249Z,63.67
2022-08-29T23:02:06.154Z,63.67
2022-08-29T23:04:34.117Z,63.75
2022-08-29T23:07:02.329Z,63.48
2022-08-29T23:09:33.559Z,64.06
2022-08-29T23:12:05.378Z,63.94
2022-08-29T23:14:35.904Z,63.87
2022-08-29T23:17:05.174Z,64.24
2022-08-29T23:19:33.515Z,63.78
2022-08-29T23:22:02.349Z,65.55
2022-08-29T23:24:31.235Z,64.60
2022-08-29T23:26:58.943Z,64.74
2022-08-29T23:29:27.096Z,64.41
2022-08-29T23:31:54.862Z,64.45
2022-08-29T23:34:22.348Z,64.57
2022-08-29T23:36:49.781Z,64.30
2022-08-29T23:39:17.434Z,63.95
2022-08-29T23:41:44.802Z,65.08
2022-08-29T23:44:12.257Z,64.50
2022-08-29T23:46:39.975Z,65.77
2022-08-29T23:49:07.495Z,64.69
2022-08-29T23:51:35.024Z,65.60
2022-08-29T23:54:02.658Z,65.04
2022-08-29T23:56:30.033Z,66.69
2022-08-29T23:58:57.824Z,65.57
